createdAt,value
2018-04-14T00:01:30.249Z,7.60
2018-04-14T00:03:58.568Z,7.20
2018-04-14T00:06:26.089Z,8.07
2018-04-14T00:08:53.644Z,9.13
2018-04-14T00:11:21.970Z,8.83
2018-04-14T00:13:49.506Z,9.73
2018-04-14T00:16:17.039Z,10.10
2018-04-14T00:18:45.362Z,9.00
2018-04-14T00:21:12.895Z,10.37
2018-04-14T00:23:40.444Z,10.70
2018-04-14T00:26:07.978Z,11.43
2018-04-14T00:28:36.306Z,9.83
2018-04-14T00:31:03.836Z,10.63
2018-04-14T00:33:31.393Z,11.03
2018-04-14T00:35:59.685Z,8.80
2018-04-14T00:38:27.240Z,10.50
2018-04-14T00:40:54.773Z,9.40
2018-04-14T00:43:23.097Z,9.83
2018-04-14T00:45:50.628Z,10.57
2018-04-14T00:48:18.183Z,9.57
2018-04-14T00:50:46.476Z,9.27
2018-04-14T00:56:21.249Z,9.73
2018-04-14T00:58:48.806Z,9.93
2018-04-14T01:01:16.349Z,9.10
2018-04-14T01:03:43.901Z,10.57
2018-04-14T01:06:11.434Z,10.97
2018-04-14T01:08:49.162Z,11.17
2018-04-14T01:11:16.693Z,11.37
2018-04-14T01:13:44.248Z,13.73
2018-04-14T01:16:11.776Z,11.90
2018-04-14T01:18:39.338Z,10.73
2018-04-14T01:21:06.873Z,10.97
2018-04-14T01:23:34.425Z,10.50
2018-04-14T01:26:01.953Z,11.23
2018-04-14T01:28:40.472Z,10.67
2018-04-14T01:31:08.775Z,10.77
2018-04-14T01:33:36.333Z,10.13
2018-04-14T01:36:03.865Z,10.43
2018-04-14T01:38:32.181Z,9.90
2018-04-14T01:40:59.709Z,9.77
2018-04-14T01:43:28.020Z,8.97
2018-04-14T01:45:55.545Z,9.63
2018-04-14T01:48:23.865Z,8.47
2018-04-14T01:50:51.397Z,9.97
2018-04-14T01:53:19.709Z,9.03
2018-04-14T01:55:47.243Z,8.57
2018-04-14T01:58:14.805Z,8.33
2018-04-14T02:00:42.337Z,8.67
2018-04-14T02:03:10.661Z,8.40
2018-04-14T02:05:38.180Z,8.40
2018-04-14T02:08:06.502Z,9.27
2018-04-14T02:10:34.031Z,8.77
2018-04-14T02:13:01.582Z,8.30
2018-04-14T02:15:29.878Z,8.97
2018-04-14T02:17:57.437Z,8.43
2018-04-14T02:20:24.972Z,8.90
2018-04-14T02:22:53.290Z,8.80
2018-04-14T02:25:20.816Z,8.30
2018-04-14T02:27:49.129Z,8.20
2018-04-14T02:30:16.659Z,8.67
2018-04-14T02:32:44.209Z,8.90
2018-04-14T02:35:12.509Z,7.97
2018-04-14T02:37:40.064Z,8.67
2018-04-14T02:40:07.589Z,8.23
2018-04-14T02:42:35.153Z,8.03
2018-04-14T02:45:02.682Z,8.10
2018-04-14T02:47:30.227Z,8.13
2018-04-14T02:49:57.745Z,8.23
2018-04-14T02:52:26.061Z,10.10
2018-04-14T02:54:53.589Z,9.53
2018-04-14T02:57:21.900Z,10.60
2018-04-14T02:59:49.437Z,10.13
2018-04-14T03:02:16.968Z,9.10
2018-04-14T03:04:45.294Z,9.33
2018-04-14T03:07:12.824Z,9.90
2018-04-14T03:09:40.377Z,10.13
2018-04-14T03:12:08.677Z,10.27
2018-04-14T03:14:36.233Z,9.23
2018-04-14T03:17:03.765Z,9.17
2018-04-14T03:19:32.093Z,10.00
2018-04-14T03:21:59.625Z,9.40
2018-04-14T03:24:27.181Z,10.83
2018-04-14T03:26:54.713Z,11.17
2018-04-14T03:29:22.272Z,10.90
2018-04-14T03:31:49.817Z,11.87
2018-04-14T03:34:17.377Z,10.90
2018-04-14T03:36:44.909Z,11.60
2018-04-14T03:39:12.481Z,11.30
2018-04-14T03:41:40.009Z,12.20
2018-04-14T03:44:07.560Z,11.17
2018-04-14T03:46:35.089Z,11.00
2018-04-14T03:49:02.652Z,10.20
2018-04-14T03:51:30.181Z,10.80
2018-04-14T03:53:57.741Z,9.57
2018-04-14T03:56:25.265Z,9.80
2018-04-14T03:58:52.822Z,10.00
2018-04-14T04:01:20.356Z,11.00
2018-04-14T04:03:48.679Z,9.47
2018-04-14T04:06:16.203Z,9.10
2018-04-14T04:08:44.529Z,10.50
2018-04-14T04:11:12.081Z,10.57
2018-04-14T04:13:39.642Z,11.30
2018-04-14T04:16:07.177Z,10.27
2018-04-14T04:18:46.586Z,8.40
2018-04-14T04:21:26.000Z,8.73
2018-04-14T04:24:05.272Z,8.10
2018-04-14T04:26:33.564Z,9.10
2018-04-14T04:29:01.119Z,10.00
2018-04-14T04:31:28.653Z,9.67
2018-04-14T04:33:56.208Z,8.50
2018-04-14T04:36:23.746Z,9.70
2018-04-14T04:38:51.306Z,9.77
2018-04-14T04:41:18.841Z,8.80
2018-04-14T04:43:46.413Z,8.60
2018-04-14T04:46:13.946Z,8.00
2018-04-14T04:48:41.495Z,9.10
2018-04-14T04:51:09.029Z,9.00
2018-04-14T04:53:36.577Z,8.70
2018-04-14T04:56:04.105Z,8.87
2018-04-14T04:58:31.718Z,9.07
2018-04-14T05:00:59.219Z,9.70
2018-04-14T05:03:26.765Z,8.33
2018-04-14T05:05:54.300Z,9.47
2018-04-14T05:08:22.618Z,8.70
2018-04-14T05:10:50.144Z,7.03
2018-04-14T05:13:18.496Z,8.20
2018-04-14T05:15:46.009Z,8.97
2018-04-14T05:18:13.569Z,7.20
2018-04-14T05:20:41.098Z,8.27
2018-04-14T05:23:09.419Z,8.27
2018-04-14T05:25:36.948Z,8.60
2018-04-14T05:28:04.477Z,8.27
2018-04-14T05:30:32.029Z,8.77
2018-04-14T05:32:59.557Z,7.90
2018-04-14T05:35:27.110Z,7.93
2018-04-14T05:37:54.645Z,8.67
2018-04-14T05:40:22.202Z,7.37
2018-04-14T05:42:49.756Z,8.20
2018-04-14T05:45:18.081Z,8.23
2018-04-14T05:47:45.602Z,8.07
2018-04-14T05:50:13.149Z,7.53
2018-04-14T05:52:41.437Z,6.40
2018-04-14T05:55:08.990Z,7.00
2018-04-14T05:57:36.538Z,7.10
2018-04-14T06:00:04.858Z,7.97
2018-04-14T06:02:32.384Z,6.63
2018-04-14T06:05:00.703Z,6.77
2018-04-14T06:07:28.235Z,7.97
2018-04-14T06:09:55.797Z,7.07
2018-04-14T06:12:23.325Z,6.53
2018-04-14T06:14:51.657Z,5.90
2018-04-14T06:17:19.208Z,7.37
2018-04-14T06:19:46.760Z,7.47
2018-04-14T06:22:14.346Z,7.03
2018-04-14T06:24:41.856Z,8.20
2018-04-14T06:27:10.149Z,6.80
2018-04-14T06:51:20.744Z,7.40
2018-04-14T06:53:49.062Z,7.60
2018-04-14T06:56:16.581Z,8.10
2018-04-14T06:58:44.905Z,7.17
2018-04-14T07:01:12.433Z,6.93
2018-04-14T07:03:39.984Z,7.07
2018-04-14T07:06:08.276Z,7.50
2018-04-14T07:08:35.828Z,8.30
2018-04-14T07:11:03.365Z,6.70
2018-04-14T07:13:30.893Z,7.73
2018-04-14T07:15:58.444Z,6.67
2018-04-14T07:18:25.974Z,7.07
2018-04-14T07:20:53.525Z,7.40
2018-04-14T07:23:21.057Z,7.03
2018-04-14T07:25:48.613Z,6.80
2018-04-14T07:28:16.174Z,7.70
2018-04-14T07:30:43.722Z,7.87
2018-04-14T07:33:11.249Z,7.33
2018-04-14T07:35:38.797Z,7.57
2018-04-14T07:38:06.326Z,7.70
2018-04-14T07:40:34.649Z,7.53
2018-04-14T07:43:02.173Z,6.97
2018-04-14T07:45:30.488Z,7.67
2018-04-14T07:47:58.020Z,7.73
2018-04-14T07:50:25.589Z,7.20
2018-04-14T07:52:53.120Z,8.37
2018-04-14T07:55:21.442Z,8.67
2018-04-14T07:57:48.980Z,7.30
2018-04-14T08:00:16.534Z,7.50
2018-04-14T08:02:44.070Z,7.13
2018-04-14T08:05:11.633Z,7.90
2018-04-14T08:07:39.161Z,6.63
2018-04-14T08:10:06.717Z,6.93
2018-04-14T08:12:34.252Z,8.10
2018-04-14T08:15:01.805Z,8.60
2018-04-14T08:17:29.345Z,7.10
2018-04-14T08:19:57.665Z,7.40
2018-04-14T08:22:25.194Z,8.20
2018-04-14T08:24:52.756Z,7.93
2018-04-14T08:27:20.284Z,7.90
2018-04-14T08:29:47.836Z,7.90
2018-04-14T08:32:15.361Z,7.40
2018-04-14T08:34:42.914Z,6.17
2018-04-14T08:37:10.441Z,6.23
2018-04-14T08:39:38.758Z,5.20
2018-04-14T08:42:06.284Z,4.77
2018-04-14T08:44:34.600Z,5.03
2018-04-14T08:47:02.127Z,4.40
2018-04-14T08:49:29.673Z,4.20
2018-04-14T08:51:57.970Z,5.30
2018-04-14T08:54:25.517Z,4.10
2018-04-14T08:56:53.806Z,5.23
2018-04-14T08:59:21.361Z,5.20
2018-04-14T09:01:48.899Z,5.00
2018-04-14T09:04:17.213Z,5.57
2018-04-14T09:06:44.737Z,5.13
2018-04-14T09:09:13.049Z,4.77
2018-04-14T09:11:40.578Z,4.23
2018-04-14T09:14:08.897Z,3.83
2018-04-14T09:16:36.425Z,4.00
2018-04-14T09:19:04.736Z,4.50
2018-04-14T09:21:32.265Z,4.40
2018-04-14T09:23:59.799Z,4.03
2018-04-14T09:26:28.132Z,3.90
2018-04-14T09:28:55.660Z,3.80
2018-04-14T09:31:23.977Z,4.10
2018-04-14T09:33:51.501Z,3.80
2018-04-14T09:36:19.055Z,3.17
2018-04-14T09:38:47.349Z,2.70
2018-04-14T09:41:14.896Z,2.73
2018-04-14T09:43:43.181Z,3.03
2018-04-14T09:46:10.730Z,2.20
2018-04-14T09:48:39.020Z,2.50
2018-04-14T09:51:06.578Z,2.40
2018-04-14T09:53:34.109Z,2.30
2018-04-14T09:56:02.436Z,2.43
2018-04-14T09:58:30.176Z,2.00
2018-04-14T10:01:01.590Z,2.30
2018-04-14T10:03:29.111Z,2.30
2018-04-14T10:05:56.661Z,2.30
2018-04-14T10:08:24.184Z,2.10
2018-04-14T10:10:52.513Z,2.10
2018-04-14T10:13:20.033Z,2.13
2018-04-14T10:15:48.344Z,2.57
2018-04-14T10:18:15.868Z,2.40
2018-04-14T10:20:44.186Z,2.10
2018-04-14T10:23:11.717Z,1.90
2018-04-14T10:25:39.273Z,2.23
2018-04-14T10:28:06.792Z,2.20
2018-04-14T10:30:34.345Z,2.30
2018-04-14T10:33:01.889Z,2.10
2018-04-14T10:35:29.440Z,1.80
2018-04-14T10:37:57.096Z,1.97
2018-04-14T10:40:24.559Z,2.33
2018-04-14T10:42:52.089Z,2.80
2018-04-14T10:45:19.637Z,2.33
2018-04-14T10:47:47.924Z,2.10
2018-04-14T10:50:16.240Z,2.23
2018-04-14T10:52:43.762Z,2.13
2018-04-14T10:55:12.076Z,1.93
2018-04-14T10:57:39.604Z,4.30
2018-04-14T11:00:07.151Z,2.40
2018-04-14T11:02:35.446Z,1.93
2018-04-14T11:05:03.001Z,1.97
2018-04-14T11:07:30.530Z,2.33
2018-04-14T11:09:58.083Z,2.00
2018-04-14T11:12:25.615Z,2.80
2018-04-14T11:14:53.172Z,2.00
2018-04-14T11:17:21.462Z,2.40
2018-04-14T11:19:49.012Z,2.00
2018-04-14T11:22:16.532Z,2.50
2018-04-14T11:24:44.077Z,2.17
2018-04-14T11:27:12.365Z,2.60
2018-04-14T11:29:40.673Z,2.67
2018-04-14T11:32:08.201Z,2.03
2018-04-14T11:34:36.521Z,1.90
2018-04-14T11:37:04.042Z,2.20
2018-04-14T11:39:32.330Z,1.80
2018-04-14T11:41:59.880Z,2.20
2018-04-14T11:44:27.409Z,2.33
2018-04-14T11:46:54.957Z,2.30
2018-04-14T11:49:22.482Z,2.40
2018-04-14T11:51:50.036Z,2.20
2018-04-14T11:54:17.568Z,2.30
2018-04-14T11:56:45.880Z,2.30
2018-04-14T11:59:13.405Z,2.83
2018-04-14T12:01:41.718Z,3.10
2018-04-14T12:04:09.236Z,3.20
2018-04-14T12:06:37.552Z,2.83
2018-04-14T12:09:05.922Z,3.47
2018-04-14T12:11:33.541Z,2.17
2018-04-14T12:14:01.064Z,2.17
2018-04-14T12:16:28.613Z,2.07
2018-04-14T12:18:56.137Z,3.30
2018-04-14T12:21:24.453Z,2.70
2018-04-14T12:23:51.984Z,4.93
2018-04-14T12:26:19.530Z,3.20
2018-04-14T12:28:47.816Z,2.23
2018-04-14T12:31:16.135Z,2.80
2018-04-14T12:33:43.661Z,2.80
2018-04-14T12:36:11.213Z,3.13
2018-04-14T12:38:39.501Z,2.80
2018-04-14T12:41:07.049Z,2.00
2018-04-14T12:43:35.337Z,1.73
2018-04-14T12:46:02.888Z,1.90
2018-04-14T12:48:31.179Z,2.37
2018-04-14T12:50:58.733Z,2.30
2018-04-14T12:53:26.262Z,2.33
2018-04-14T12:55:54.594Z,3.37
2018-04-14T12:58:22.128Z,3.37
2018-04-14T13:00:49.682Z,2.20
2018-04-14T13:03:17.208Z,2.40
2018-04-14T13:05:44.794Z,2.20
2018-04-14T13:08:13.080Z,2.60
2018-04-14T13:10:41.403Z,2.37
2018-04-14T13:13:08.930Z,2.13
2018-04-14T13:15:36.476Z,1.80
2018-04-14T13:18:04.769Z,2.00
2018-04-14T13:20:32.343Z,2.20
2018-04-14T13:22:59.872Z,1.90
2018-04-14T13:25:28.191Z,2.00
2018-04-14T13:27:55.712Z,2.20
2018-04-14T13:30:23.269Z,2.30
2018-04-14T13:32:51.559Z,2.00
2018-04-14T13:35:19.115Z,2.20
2018-04-14T13:37:46.640Z,3.10
2018-04-14T13:40:14.192Z,2.80
2018-04-14T13:42:41.717Z,2.10
2018-04-14T13:45:09.245Z,2.47
2018-04-14T13:47:36.798Z,2.40
2018-04-14T13:50:05.090Z,2.10
2018-04-14T13:52:32.632Z,1.90
2018-04-14T13:55:00.920Z,2.13
2018-04-14T13:57:28.477Z,2.10
2018-04-14T13:59:56.761Z,2.47
2018-04-14T14:02:24.315Z,2.87
2018-04-14T14:04:51.849Z,2.60
2018-04-14T14:07:19.397Z,2.03
2018-04-14T14:09:46.925Z,2.50
2018-04-14T14:12:14.483Z,2.10
2018-04-14T14:14:42.021Z,2.03
2018-04-14T14:17:09.576Z,1.70
2018-04-14T14:19:37.133Z,2.07
2018-04-14T14:22:04.687Z,1.87
2018-04-14T14:24:32.971Z,1.77
2018-04-14T14:27:01.261Z,3.10
2018-04-14T14:29:28.811Z,2.77
2018-04-14T14:31:56.343Z,2.53
2018-04-14T14:34:23.888Z,2.40
2018-04-14T14:36:51.416Z,3.90
2018-04-14T14:39:18.965Z,2.40
2018-04-14T14:41:46.497Z,2.20
2018-04-14T14:44:14.819Z,2.90
2018-04-14T14:46:42.355Z,3.50
2018-04-14T14:49:09.914Z,2.47
2018-04-14T14:51:37.439Z,2.43
2018-04-14T14:54:04.993Z,4.70
2018-04-14T14:56:32.525Z,2.97
2018-04-14T14:59:00.072Z,2.43
2018-04-14T15:01:27.601Z,2.40
2018-04-14T15:03:55.908Z,2.57
2018-04-14T15:06:23.428Z,2.40
2018-04-14T15:08:51.747Z,2.50
2018-04-14T15:11:19.276Z,2.33
2018-04-14T15:13:46.821Z,3.00
2018-04-14T15:16:15.113Z,9.33
2018-04-14T15:18:42.672Z,5.33
2018-04-14T15:21:10.209Z,2.80
2018-04-14T15:23:37.732Z,2.40
2018-04-14T15:26:06.045Z,1.90
2018-04-14T15:28:33.564Z,2.63
2018-04-14T15:31:01.134Z,2.73
2018-04-14T15:33:28.656Z,2.97
2018-04-14T15:35:56.211Z,5.60
2018-04-14T15:38:23.737Z,2.70
2018-04-14T15:40:51.294Z,2.90
2018-04-14T15:43:18.820Z,2.10
2018-04-14T15:45:46.365Z,1.97
2018-04-14T15:48:13.890Z,1.90
2018-04-14T15:50:42.205Z,2.97
2018-04-14T15:53:09.733Z,3.90
2018-04-14T15:55:38.052Z,3.10
2018-04-14T15:58:05.613Z,3.17
2018-04-14T16:00:33.149Z,2.60
2018-04-14T16:03:00.682Z,6.60
2018-04-14T16:05:29.044Z,3.40
2018-04-14T16:07:57.356Z,4.17
2018-04-14T16:10:24.917Z,4.67
2018-04-14T16:12:52.847Z,3.83
2018-04-14T16:15:20.381Z,8.80
2018-04-14T16:17:47.937Z,2.87
2018-04-14T16:20:15.465Z,2.30
2018-04-14T16:22:43.017Z,2.23
2018-04-14T16:25:11.313Z,2.73
2018-04-14T16:27:38.870Z,2.40
2018-04-14T16:30:06.400Z,2.63
2018-04-14T16:32:34.720Z,3.33
2018-04-14T16:35:02.298Z,4.10
2018-04-14T16:37:29.841Z,4.27
2018-04-14T16:39:57.360Z,3.07
2018-04-14T16:42:25.678Z,4.10
2018-04-14T16:44:53.213Z,3.30
2018-04-14T16:47:20.765Z,2.50
2018-04-14T16:49:49.057Z,2.50
2018-04-14T16:52:16.606Z,3.40
2018-04-14T16:54:44.896Z,4.20
2018-04-14T16:57:12.444Z,3.87
2018-04-14T16:59:40.731Z,3.30
2018-04-14T17:02:08.287Z,3.20
2018-04-14T17:04:35.813Z,2.53
2018-04-14T17:07:03.361Z,3.10
2018-04-14T17:09:30.889Z,3.10
2018-04-14T17:11:58.445Z,3.17
2018-04-14T17:14:25.965Z,3.60
2018-04-14T17:16:54.283Z,3.20
2018-04-14T17:19:21.813Z,2.80
2018-04-14T17:21:50.128Z,3.30
2018-04-14T17:24:17.652Z,3.90
2018-04-14T17:26:45.968Z,3.23
2018-04-14T17:29:13.497Z,3.57
2018-04-14T17:31:41.048Z,2.37
2018-04-14T17:34:08.577Z,2.20
2018-04-14T17:36:36.133Z,2.30
2018-04-14T17:39:03.657Z,2.40
2018-04-14T17:41:31.209Z,3.97
2018-04-14T17:43:58.731Z,4.07
2018-04-14T17:46:27.049Z,2.70
2018-04-14T17:48:54.579Z,2.20
2018-04-14T17:51:22.893Z,2.30
2018-04-14T17:53:50.413Z,2.13
2018-04-14T17:56:18.779Z,2.77
2018-04-14T17:58:46.269Z,2.00
2018-04-14T18:01:13.821Z,2.20
2018-04-14T18:03:41.353Z,2.60
2018-04-14T18:06:08.881Z,2.30
2018-04-14T18:08:36.430Z,2.40
2018-04-14T18:11:03.964Z,3.40
2018-04-14T18:13:31.524Z,4.50
2018-04-14T18:15:59.050Z,4.57
2018-04-14T18:18:26.609Z,4.47
2018-04-14T18:20:54.133Z,4.43
2018-04-14T18:23:21.689Z,4.07
2018-04-14T18:25:49.213Z,4.47
2018-04-14T18:28:17.529Z,3.90
2018-04-14T18:30:45.821Z,3.70
2018-04-14T18:33:13.373Z,3.60
2018-04-14T18:35:40.892Z,4.10
2018-04-14T18:38:08.436Z,3.67
2018-04-14T18:40:36.752Z,4.80
2018-04-14T18:43:04.309Z,6.00
2018-04-14T18:45:31.848Z,5.43
2018-04-14T18:47:59.406Z,5.73
2018-04-14T18:50:26.933Z,5.87
2018-04-14T18:52:54.489Z,4.43
2018-04-14T18:55:22.008Z,6.13
2018-04-14T18:57:49.558Z,4.33
2018-04-14T19:00:17.076Z,4.33
2018-04-14T19:02:44.634Z,4.30
2018-04-14T19:05:12.212Z,4.80
2018-04-14T19:07:39.739Z,4.40
2018-04-14T19:10:07.268Z,3.50
2018-04-14T19:12:34.816Z,3.93
2018-04-14T19:15:02.353Z,3.93
2018-04-14T19:17:29.918Z,4.40
2018-04-14T19:19:57.454Z,3.90
2018-04-14T19:22:25.010Z,3.83
2018-04-14T19:24:52.537Z,3.60
2018-04-14T19:27:20.086Z,3.70
2018-04-14T19:29:47.623Z,4.80
2018-04-14T19:32:15.179Z,3.53
2018-04-14T19:34:42.713Z,3.60
2018-04-14T19:37:11.041Z,3.67
2018-04-14T19:39:38.561Z,3.90
2018-04-14T19:42:06.873Z,3.80
2018-04-14T19:44:34.401Z,3.00
2018-04-14T19:47:02.723Z,4.17
2018-04-14T19:49:30.253Z,4.07
2018-04-14T19:51:57.813Z,3.93
2018-04-14T19:54:25.342Z,3.50
2018-04-14T19:56:52.905Z,3.70
2018-04-14T19:59:20.429Z,3.60
2018-04-14T20:01:47.984Z,3.80
2018-04-14T20:04:15.505Z,4.00
2018-04-14T20:06:43.823Z,4.63
2018-04-14T20:09:11.349Z,3.53
2018-04-14T20:11:38.874Z,6.00
2018-04-14T20:14:06.425Z,5.20
2018-04-14T20:16:34.723Z,5.60
2018-04-14T20:19:03.046Z,5.20
2018-04-14T20:21:30.569Z,4.60
2018-04-14T20:23:58.887Z,4.27
2018-04-14T20:26:26.413Z,5.40
2018-04-14T20:28:54.729Z,3.70
2018-04-14T20:31:22.252Z,5.00
2018-04-14T20:33:50.573Z,5.90
2018-04-14T20:36:18.105Z,4.90
2018-04-14T20:38:45.661Z,5.60
2018-04-14T20:41:13.232Z,7.00
2018-04-14T20:43:40.769Z,5.27
2018-04-14T20:46:08.302Z,6.07
2018-04-14T20:48:35.847Z,4.30
2018-04-14T20:51:03.374Z,4.00
2018-04-14T20:53:30.933Z,5.20
2018-04-14T20:55:58.464Z,3.80
2018-04-14T20:58:26.012Z,5.07
2018-04-14T21:00:54.304Z,4.47
2018-04-14T21:03:21.858Z,3.27
2018-04-14T21:05:50.147Z,3.20
2018-04-14T21:08:17.697Z,5.13
2018-04-14T21:10:45.988Z,3.60
2018-04-14T21:13:13.537Z,3.43
2018-04-14T21:15:41.830Z,3.33
2018-04-14T21:18:09.381Z,3.17
2018-04-14T21:20:36.905Z,2.80
2018-04-14T21:23:04.453Z,2.60
2018-04-14T21:25:31.981Z,3.20
2018-04-14T21:27:59.539Z,3.23
2018-04-14T21:30:27.076Z,3.20
2018-04-14T21:32:54.628Z,2.90
2018-04-14T21:35:22.912Z,3.30
2018-04-14T21:37:50.465Z,3.87
2018-04-14T21:40:18.752Z,6.37
2018-04-14T21:42:46.300Z,5.07
2018-04-14T21:45:14.589Z,4.47
2018-04-14T21:47:42.141Z,3.97
2018-04-14T21:50:09.677Z,4.13
2018-04-14T21:52:37.241Z,4.13
2018-04-14T21:55:05.547Z,4.70
2018-04-14T21:57:33.100Z,3.90
2018-04-14T22:00:00.633Z,4.10
2018-04-14T22:02:28.185Z,3.50
2018-04-14T22:04:55.722Z,3.43
2018-04-14T22:07:23.296Z,3.53
2018-04-14T22:09:50.830Z,4.27
2018-04-14T22:12:18.382Z,4.73
2018-04-14T22:14:45.912Z,4.13
2018-04-14T22:17:14.241Z,4.07
2018-04-14T22:19:41.782Z,3.67
2018-04-14T22:22:09.319Z,3.87
2018-04-14T22:24:36.865Z,3.93
2018-04-14T22:27:05.151Z,2.97
2018-04-14T22:29:33.476Z,3.47
2018-04-14T22:32:01.000Z,3.10
2018-04-14T22:34:28.562Z,2.80
2018-04-14T22:36:56.086Z,3.00
2018-04-14T22:39:23.641Z,2.57
2018-04-14T22:41:51.171Z,3.10
2018-04-14T22:44:18.729Z,3.30
2018-04-14T22:46:46.256Z,3.07
2018-04-14T22:49:13.809Z,3.17
2018-04-14T22:51:41.337Z,3.40
2018-04-14T22:54:08.892Z,3.60
2018-04-14T22:56:36.428Z,3.10
2018-04-14T22:59:03.990Z,3.03
2018-04-14T23:01:31.523Z,3.13
2018-04-14T23:03:59.072Z,2.70
2018-04-14T23:06:26.601Z,3.20
2018-04-14T23:08:54.917Z,3.20
2018-04-14T23:11:22.450Z,3.30
2018-04-14T23:13:50.768Z,3.30
2018-04-14T23:16:18.298Z,3.20
2018-04-14T23:18:45.845Z,3.70
2018-04-14T23:21:14.135Z,3.20
2018-04-14T23:23:41.661Z,3.63
2018-04-14T23:26:09.215Z,3.57
2018-04-14T23:28:36.736Z,3.67
2018-04-14T23:31:04.280Z,3.93
2018-04-14T23:33:31.805Z,3.30
2018-04-14T23:36:00.136Z,3.40
2018-04-14T23:38:27.666Z,3.70
2018-04-14T23:40:55.230Z,3.43
2018-04-14T23:43:22.756Z,3.17
2018-04-14T23:45:50.321Z,3.27
2018-04-14T23:48:17.848Z,4.40
2018-04-14T23:50:45.404Z,3.50
2018-04-14T23:53:12.937Z,3.50
2018-04-14T23:55:40.486Z,3.37
2018-04-14T23:58:08.017Z,3.77
